Bewolking Meer informatie Parkstad Weather Satellite


Neerslagradar Meer informatie Parkstad Rain Snow Radar


Onweersbuien Meer informatie Parkstad Lighntning


24/7 Weercamera Meer informatie Parkstad Weathercam


Natuurbrandrisico
CBI







Het weer levert geen direct gevaar op in Parkstad.    Er zijn geen waarschuwingen afgegeven voor Parkstad (045)

METAR rapporten vliegvelden

   
EHAM - Amsterdam
Gewijzigd: 28-02-2021 00:55
Patches of, Mist, Nevel, Gedeeltelijk bewolkt  
Patches of, Mist, Nevel, Gedeeltelijk bewolkt  
   Wind: ONO 3.7 km/h
Wind: ONO 3.7 km/h
Temperatuur: 2°C
Dauwpunt: 2°C
Vochtigheid: 100%
Barometer: 1040 hPa
Satelliet beelden: Gedeeltelijk bewolkt
Zicht: 2 km
Bewolking: Gedeeltelijk bewolkt
EHAM 272355Z 06002KT 2000 R18C/0400N R27/1800U R18R///// R06/P2000N BCFG BR NSC 02/02 Q1040 BECMG 1200
EBAW - Antwerpen
Gewijzigd: 28-02-2021 00:50
Helder  
Helder  
   Wind: NNO 5.6 km/h
Wind: NNO 5.6 km/h
Temperatuur: 2°C
Voelt als: 1°C
Dauwpunt: 1°C
Vochtigheid: 93%
Barometer: 1040 hPa
Satelliet beelden: Helder
Zicht: 5 km
Bewolking: Helder
EBAW 272350Z AUTO 03003KT 4600 // NCD 02/01 Q1040
EGLL - London
Gewijzigd: 28-02-2021 00:50
Helder  
Helder  
   Wind: NNO 5.6 km/h
Wind: NNO 5.6 km/h
Temperatuur: 5°C
Voelt als: 4°C
Dauwpunt: 3°C
Vochtigheid: 87%
Barometer: 1040 hPa
Satelliet beelden: Helder
Zicht: meer dan 10 km
Bewolking: Helder
EGLL 272350Z AUTO 03003KT 9999 NCD 05/03 Q1040
ELLX - Luxemburg
Gewijzigd: 28-02-2021 00:50
Grotendeels bewolkt  
Grotendeels bewolkt  
   Wind: ONO 24.1 km/h
Wind: ONO 24.1 km/h
Temperatuur: 4°C
Voelt als: -1°C
Dauwpunt: 1°C
Vochtigheid: 81%
Barometer: 1036 hPa
Satelliet beelden: Grotendeels bewolkt
Zicht: meer dan 10 km
Bewolking: Grotendeels bewolkt 396 m
ELLX 272350Z 06013KT 9999 BKN013 04/01 Q1036 NOSIG
EDDT - Berlijn
Gewijzigd: 09-11-2020 07:50
Verouderd
Nevel, Bewolking  
Nevel, Bewolking  
   Wind: Oosten 11.1 km/h
Wind: Oosten 11.1 km/h
Temperatuur: 6°C
Voelt als: 4°C
Dauwpunt: 5°C
Vochtigheid: 93%
Barometer: 1027 hPa
Satelliet beelden: Bewolking
Zicht: 3 km
Bewolking: Bewolking 91 m
EDDT 090650Z 09006KT 050V120 3000 BR OVC003 06/05 Q1027
EDDM - München
Gewijzigd: 28-02-2021 00:50
Helder  
Helder  
   Wind: NNO 7.4 km/h
Wind: NNO 7.4 km/h
Temperatuur: -1°C
Voelt als: -4°C
Dauwpunt: -2°C
Vochtigheid: 93%
Barometer: 1035 hPa
Zicht: meer dan 10 km
Bewolking: Helder
EDDM 272350Z 03004KT CAVOK M01/M02 Q1035 NOSIG
LFPO - Parijs
Gewijzigd: 28-02-2021 01:00
Helder  
Helder  
   Wind: NO 22.2 km/h
Wind: NO 22.2 km/h
Temperatuur: 5°C
Voelt als: 1°C
Dauwpunt: 2°C
Vochtigheid: 81%
Barometer: 1035 hPa
Zicht: meer dan 10 km
Bewolking: Helder
LFPO 280000Z 04012KT CAVOK 05/02 Q1035 NOSIG
EDDL - Düsseldorf
Gewijzigd: 28-02-2021 00:50
Grotendeels bewolkt  
Grotendeels bewolkt  
   Wind: ONO 5.6 km/h
Wind: ONO 5.6 km/h
Temperatuur: 6°C
Voelt als: 5°C
Dauwpunt: 3°C
Vochtigheid: 81%
Barometer: 1039 hPa
Satelliet beelden: Grotendeels bewolkt
Zicht: meer dan 10 km
Bewolking: Grotendeels bewolkt 762 m
EDDL 272350Z 06003KT 9999 BKN025 06/03 Q1039 NOSIG
EDDK - Köln/Bonn Duitsland
Gewijzigd: 28-02-2021 00:50
Grotendeels bewolkt  
Grotendeels bewolkt  
   Wind: varieert 1.9 km/h
Wind: varieert 1.9 km/h
Temperatuur: 1°C
Dauwpunt: 0°C
Vochtigheid: 93%
Barometer: 1039 hPa
Satelliet beelden: Grotendeels bewolkt
Zicht: meer dan 10 km
Bewolking: Grotendeels bewolkt 975 m
EDDK 272350Z VRB01KT 9999 BKN032 01/M00 Q1039 NOSIG
TNCA - Oranjestad Aruba
Gewijzigd: 28-02-2021 01:00
Gedeeltelijk bewolkt  
Gedeeltelijk bewolkt  
   Wind: Oosten 29.6 km/h<br />Gust to 29.6 km/h
Wind: Oosten 29.6 km/h
Gust to 29.6 km/h
Temperatuur: 26°C
Dauwpunt: 22°C
Vochtigheid: 79%
Barometer: 1012 hPa
Satelliet beelden: Gedeeltelijk bewolkt
Zicht: meer dan 10 km
Bewolking: Gedeeltelijk bewolkt 610 m
TNCA 280000Z 08016G27KT 9999 SCT020 26/22 Q1012 NOSIG
TNCC - Willemstad Curacao
Gewijzigd: 28-02-2021 01:00
Licht bewolkt  
Licht bewolkt  
   Wind: Oosten 25.9 km/h
Wind: Oosten 25.9 km/h
Temperatuur: 25°C
Dauwpunt: 21°C
Vochtigheid: 79%
Barometer: 1013 hPa
Satelliet beelden: Licht bewolkt
Zicht: meer dan 10 km
Bewolking: Licht bewolkt 518 m
TNCC 280000Z 08014KT 9999 FEW017TCU 25/21 Q1013 NOSIG
LEAL - La Nucia Spanje
Gewijzigd: 28-02-2021 01:00
Gedeeltelijk bewolkt  
Gedeeltelijk bewolkt  
   Wind: NNO 11.1 km/h
Wind: NNO 11.1 km/h
Temperatuur: 12°C
Dauwpunt: 8°C
Vochtigheid: 77%
Barometer: 1023 hPa
Satelliet beelden: Gedeeltelijk bewolkt
Zicht: meer dan 10 km
Bewolking: Licht bewolkt 549 m,
Gedeeltelijk bewolkt 1067 m
LEAL 280000Z 02006KT 350V050 9999 FEW018 SCT035 12/08 Q1023 NOSIG

Script ontwikkeld door  Saratoga-weather.org Aangepast voor de template door  Weerstation Leuven

U vindt ons ook hier:

Het Weer Aktueel

WOW Nederland KNMI

Vereniging voor Weerkunde en Klimatologie

UK Met Office Weather Observation Website (WOW)

WeatherCloud

Weather Underground

Awekas

MeteoMap.Cloud

HAMweather, WeatherForYou, PWS Weather

Citizen Weather Observer Program (CWOP)

Apparatuur in gebruik:

Hardwareleverancier
Weerhuisje

Weerstation
Vantage Pro2+ UV

Weercomputer's
alix3d2 & wl330n

Weerprogramma's
Smartbedded

Satelliet NOAA's
WRX137 & KX137

Satelliet Eumetsat
Ayecka SR1 & Triax

Bliksemdetectie
Boltek StormTracker

Webleverancier
F-Service

Weerhuisje

Vantage Pro2+ UV

alix3d2 & wl330n

Smartbedded

WRX137 & KX137

Ayecka SR1 & Triax

Boltek StormTracker

F-Service